createdAt,value
2018-05-03T00:02:09.125Z,14.67
2018-05-03T00:04:36.677Z,14.66
2018-05-03T00:07:04.187Z,14.74
2018-05-03T00:09:31.747Z,14.68
2018-05-03T00:11:59.286Z,14.66
2018-05-03T00:14:26.815Z,14.65
2018-05-03T00:16:54.621Z,14.63
2018-05-03T00:19:22.306Z,14.62
2018-05-03T00:21:50.461Z,14.66
2018-05-03T00:24:18.327Z,14.63
2018-05-03T00:26:45.847Z,14.59
2018-05-03T00:29:13.359Z,14.59
2018-05-03T00:31:40.987Z,14.58
2018-05-03T00:34:08.511Z,14.57
2018-05-03T00:36:36.339Z,14.54
2018-05-03T00:39:03.893Z,14.55
2018-05-03T00:41:31.456Z,14.54
2018-05-03T00:43:58.969Z,14.52
2018-05-03T00:46:26.588Z,14.52
2018-05-03T00:48:54.140Z,14.53
2018-05-03T00:51:21.671Z,14.53
2018-05-03T00:53:49.256Z,14.53
2018-05-03T00:56:16.813Z,14.52
2018-05-03T00:58:44.357Z,14.52
2018-05-03T01:01:12.011Z,14.53
2018-05-03T01:03:39.566Z,14.52
2018-05-03T01:06:07.152Z,14.52
2018-05-03T01:08:34.722Z,14.52
2018-05-03T01:11:02.594Z,14.50
2018-05-03T01:13:30.135Z,14.51
2018-05-03T01:15:57.716Z,14.46
2018-05-03T01:18:25.258Z,14.45
2018-05-03T01:20:52.811Z,14.43
2018-05-03T01:23:20.352Z,14.41
2018-05-03T01:25:47.869Z,14.38
2018-05-03T01:28:15.445Z,14.14
2018-05-03T01:30:43.038Z,14.11
2018-05-03T01:33:10.557Z,14.09
2018-05-03T01:35:50.009Z,14.10
2018-05-03T01:38:17.607Z,14.14
2018-05-03T01:40:45.173Z,14.17
2018-05-03T01:43:12.716Z,14.18
2018-05-03T01:45:40.264Z,14.21
2018-05-03T01:48:07.837Z,14.21
2018-05-03T01:50:35.407Z,14.21
2018-05-03T01:53:02.952Z,14.23
2018-05-03T01:55:30.524Z,14.23
2018-05-03T01:57:58.088Z,14.22
2018-05-03T02:00:25.623Z,14.22
2018-05-03T02:02:53.773Z,14.24
2018-05-03T02:05:21.390Z,14.22
2018-05-03T02:07:48.930Z,14.21
2018-05-03T02:10:16.453Z,14.19
2018-05-03T02:12:44.039Z,14.20
2018-05-03T02:15:11.584Z,14.19
2018-05-03T02:17:39.129Z,14.18
2018-05-03T02:20:06.808Z,14.19
2018-05-03T02:22:34.380Z,14.17
2018-05-03T02:25:01.914Z,14.17
2018-05-03T02:27:29.499Z,14.17
2018-05-03T02:29:57.070Z,14.17
2018-05-03T02:32:24.628Z,14.16
2018-05-03T02:34:52.198Z,14.15
2018-05-03T02:37:19.764Z,14.16
2018-05-03T02:39:47.286Z,14.16
2018-05-03T02:42:14.852Z,14.15
2018-05-03T02:44:42.393Z,14.15
2018-05-03T02:47:09.938Z,14.15
2018-05-03T02:49:37.532Z,14.16
2018-05-03T02:52:05.499Z,14.14
2018-05-03T02:54:33.091Z,14.15
2018-05-03T02:57:12.530Z,14.15
2018-05-03T02:59:51.909Z,14.16
2018-05-03T03:02:25.012Z,14.14
2018-05-03T03:05:09.990Z,14.14
2018-05-03T03:11:02.019Z,14.08
2018-05-03T03:17:23.002Z,14.09
2018-05-03T03:20:08.019Z,14.07
2018-05-03T03:22:53.434Z,14.05
2018-05-03T03:28:44.280Z,14.02
2018-05-03T03:31:29.147Z,14.00
2018-05-03T03:37:26.467Z,13.96
2018-05-03T03:40:11.883Z,13.93
2018-05-03T03:45:50.939Z,13.82
2018-05-03T03:48:18.808Z,13.81
2018-05-03T03:50:46.322Z,13.81
2018-05-03T03:53:13.889Z,13.82
2018-05-03T03:55:41.430Z,13.81
2018-05-03T03:58:08.934Z,13.80
2018-05-03T04:00:36.485Z,13.76
2018-05-03T04:03:04.093Z,13.75
2018-05-03T04:05:31.614Z,13.70
2018-05-03T04:07:59.147Z,13.56
2018-05-03T04:10:26.685Z,13.60
2018-05-03T04:12:54.201Z,13.41
2018-05-03T04:15:22.089Z,13.37
2018-05-03T04:18:01.592Z,13.35
2018-05-03T04:20:46.926Z,13.39
2018-05-03T04:23:26.222Z,13.44
2018-05-03T04:26:00.542Z,13.50
2018-05-03T04:28:28.093Z,13.59
2018-05-03T04:30:55.593Z,13.66
2018-05-03T04:33:23.175Z,13.71
2018-05-03T04:35:50.718Z,13.74
2018-05-03T04:38:18.558Z,13.75
2018-05-03T04:40:46.079Z,13.68
2018-05-03T04:43:13.884Z,13.68
2018-05-03T04:45:41.397Z,13.73
2018-05-03T04:48:08.898Z,13.41
2018-05-03T04:50:36.453Z,13.16
2018-05-03T04:53:03.965Z,13.06
2018-05-03T04:55:31.479Z,13.09
2018-05-03T04:57:59.054Z,13.17
2018-05-03T05:00:26.586Z,13.32
2018-05-03T05:02:54.098Z,13.35
2018-05-03T05:05:22.028Z,13.42
2018-05-03T05:07:49.564Z,13.45
2018-05-03T05:10:17.137Z,13.53
2018-05-03T05:12:44.921Z,13.61
2018-05-03T05:15:12.447Z,13.66
2018-05-03T05:17:40.035Z,13.67
2018-05-03T05:20:07.597Z,13.60
2018-05-03T05:22:35.125Z,13.44
2018-05-03T05:25:02.672Z,13.33
2018-05-03T05:27:30.332Z,13.36
2018-05-03T05:29:57.857Z,13.47
2018-05-03T05:32:25.418Z,13.56
2018-05-03T05:34:52.974Z,13.47
2018-05-03T05:37:20.489Z,13.36
2018-05-03T05:39:48.006Z,13.47
2018-05-03T05:42:15.559Z,13.58
2018-05-03T05:44:43.141Z,13.60
2018-05-03T05:47:10.677Z,13.65
2018-05-03T05:49:38.218Z,13.80
2018-05-03T05:52:05.801Z,13.91
2018-05-03T05:54:33.553Z,14.03
2018-05-03T05:57:01.099Z,14.12
2018-05-03T05:59:28.618Z,14.33
2018-05-03T06:01:56.132Z,14.39
2018-05-03T06:04:23.676Z,14.51
2018-05-03T06:06:51.209Z,14.54
2018-05-03T06:11:52.593Z,14.43
2018-05-03T06:14:20.101Z,14.49
2018-05-03T06:16:47.605Z,14.58
2018-05-03T06:19:15.158Z,14.67
2018-05-03T06:21:42.684Z,14.74
2018-05-03T06:24:10.196Z,14.81
2018-05-03T06:26:37.993Z,14.87
2018-05-03T06:29:05.502Z,14.97
2018-05-03T06:31:33.034Z,15.11
2018-05-03T06:34:00.585Z,15.44
2018-05-03T06:36:28.105Z,15.61
2018-05-03T06:38:55.687Z,15.93
2018-05-03T06:41:23.180Z,16.06
2018-05-03T06:43:50.727Z,15.91
2018-05-03T06:46:18.243Z,15.84
2018-05-03T06:48:45.827Z,15.86
2018-05-03T06:51:13.390Z,15.88
2018-05-03T06:53:41.262Z,15.85
2018-05-03T06:56:09.125Z,15.87
2018-05-03T06:58:36.699Z,15.76
2018-05-03T07:01:04.192Z,15.65
2018-05-03T07:03:32.006Z,15.66
2018-05-03T07:05:59.595Z,15.59
2018-05-03T07:08:27.119Z,15.55
2018-05-03T07:10:54.678Z,15.41
2018-05-03T07:13:22.232Z,15.35
2018-05-03T07:15:49.849Z,15.35
2018-05-03T07:18:17.425Z,15.42
2018-05-03T07:20:45.096Z,15.45
2018-05-03T07:23:12.633Z,15.46
2018-05-03T07:25:40.235Z,15.47
2018-05-03T07:28:07.830Z,15.46
2018-05-03T07:30:35.438Z,15.51
2018-05-03T07:33:03.055Z,15.43
2018-05-03T07:35:31.599Z,15.50
2018-05-03T07:37:59.120Z,15.40
2018-05-03T07:40:26.678Z,15.50
2018-05-03T07:42:54.207Z,15.59
2018-05-03T07:45:21.897Z,15.66
2018-05-03T07:47:49.452Z,15.76
2018-05-03T07:50:17.202Z,15.82
2018-05-03T07:52:44.712Z,15.87
2018-05-03T07:55:12.485Z,16.00
2018-05-03T07:57:40.131Z,15.94
2018-05-03T08:00:07.987Z,16.05
2018-05-03T08:02:35.577Z,16.14
2018-05-03T08:05:03.135Z,16.19
2018-05-03T08:07:30.698Z,16.37
2018-05-03T08:09:58.440Z,16.26
2018-05-03T08:12:25.982Z,16.41
2018-05-03T08:14:53.573Z,16.55
2018-05-03T08:17:21.263Z,16.78
2018-05-03T08:19:48.790Z,17.17
2018-05-03T08:22:16.632Z,17.34
2018-05-03T08:24:44.212Z,17.28
2018-05-03T08:27:11.771Z,17.34
2018-05-03T08:29:39.341Z,17.90
2018-05-03T08:32:06.889Z,18.56
2018-05-03T08:34:34.440Z,19.11
2018-05-03T08:37:01.996Z,19.70
2018-05-03T08:39:29.955Z,19.96
2018-05-03T08:41:57.548Z,20.31
2018-05-03T08:44:25.139Z,20.76
2018-05-03T08:46:52.739Z,21.23
2018-05-03T08:49:20.286Z,21.67
2018-05-03T08:51:47.848Z,21.85
2018-05-03T08:54:15.414Z,21.73
2018-05-03T08:56:42.921Z,22.15
2018-05-03T08:59:10.494Z,22.57
2018-05-03T09:01:38.388Z,22.83
2018-05-03T09:04:05.893Z,23.36
2018-05-03T09:06:33.464Z,23.55
2018-05-03T09:09:01.005Z,23.88
2018-05-03T09:11:28.537Z,23.89
2018-05-03T09:13:56.079Z,23.99
2018-05-03T09:16:23.881Z,24.19
2018-05-03T09:18:51.415Z,24.33
2018-05-03T09:21:18.963Z,24.37
2018-05-03T09:23:46.821Z,23.61
2018-05-03T09:26:14.359Z,23.71
2018-05-03T09:28:41.893Z,24.10
2018-05-03T09:31:09.488Z,24.28
2018-05-03T09:33:37.037Z,24.56
2018-05-03T09:36:04.543Z,24.21
2018-05-03T09:38:32.089Z,24.08
2018-05-03T09:40:59.675Z,23.83
2018-05-03T09:43:27.203Z,23.76
2018-05-03T09:45:54.751Z,23.52
2018-05-03T09:48:22.374Z,23.52
2018-05-03T09:50:49.904Z,23.27
2018-05-03T09:53:17.472Z,23.22
2018-05-03T09:55:45.055Z,23.11
2018-05-03T09:58:12.632Z,22.92
2018-05-03T10:00:40.211Z,22.68
2018-05-03T10:03:08.082Z,22.52
2018-05-03T10:05:35.656Z,22.52
2018-05-03T10:08:03.253Z,22.62
2018-05-03T10:10:30.894Z,22.65
2018-05-03T10:12:58.454Z,22.57
2018-05-03T10:15:26.008Z,22.58
2018-05-03T10:17:53.695Z,22.99
2018-05-03T10:20:21.324Z,22.86
2018-05-03T10:22:48.912Z,23.10
2018-05-03T10:25:16.451Z,23.52
2018-05-03T10:27:44.061Z,23.68
2018-05-03T10:30:11.633Z,23.67
2018-05-03T10:32:39.156Z,22.98
2018-05-03T10:35:06.723Z,23.35
2018-05-03T10:37:34.334Z,23.48
2018-05-03T10:40:01.894Z,22.34
2018-05-03T10:42:29.607Z,22.58
2018-05-03T10:44:57.277Z,22.40
2018-05-03T10:47:24.921Z,22.69
2018-05-03T10:49:52.719Z,23.31
2018-05-03T10:52:20.265Z,23.90
2018-05-03T10:54:47.799Z,24.61
2018-05-03T10:57:15.345Z,24.69
2018-05-03T10:59:42.905Z,24.22
2018-05-03T11:02:10.423Z,23.71
2018-05-03T11:04:37.940Z,23.02
2018-05-03T11:07:05.531Z,22.89
2018-05-03T11:09:33.058Z,22.91
2018-05-03T11:12:00.606Z,22.89
2018-05-03T11:14:28.183Z,23.04
2018-05-03T11:16:55.757Z,23.01
2018-05-03T11:19:23.302Z,23.18
2018-05-03T11:21:50.865Z,23.37
2018-05-03T11:24:18.405Z,23.51
2018-05-03T11:26:45.933Z,24.13
2018-05-03T11:29:13.509Z,24.82
2018-05-03T11:31:41.027Z,25.06
2018-05-03T11:34:08.818Z,25.39
2018-05-03T11:36:36.388Z,25.43
2018-05-03T11:39:03.930Z,25.95
2018-05-03T11:41:31.451Z,26.62
2018-05-03T11:43:59.261Z,26.83
2018-05-03T11:46:26.774Z,27.54
2018-05-03T11:48:54.329Z,29.27
2018-05-03T11:51:21.874Z,30.75
2018-05-03T11:53:49.426Z,32.20
2018-05-03T11:56:16.957Z,32.74
2018-05-03T11:58:44.522Z,32.40
2018-05-03T12:01:12.089Z,32.41
2018-05-03T12:03:39.608Z,32.21
2018-05-03T12:06:07.211Z,32.10
2018-05-03T12:08:35.174Z,31.22
2018-05-03T12:11:02.739Z,29.84
2018-05-03T12:13:30.313Z,28.68
2018-05-03T12:15:57.855Z,28.41
2018-05-03T12:18:25.484Z,27.43
2018-05-03T12:20:53.091Z,26.91
2018-05-03T12:23:20.814Z,25.89
2018-05-03T12:25:48.342Z,24.91
2018-05-03T12:28:15.927Z,24.51
2018-05-03T12:30:43.527Z,24.63
2018-05-03T12:33:11.107Z,24.35
2018-05-03T12:35:38.671Z,24.39
2018-05-03T12:38:06.277Z,25.69
2018-05-03T12:40:33.784Z,25.52
2018-05-03T12:43:01.381Z,26.55
2018-05-03T12:45:28.919Z,30.06
2018-05-03T12:47:56.485Z,32.70
2018-05-03T12:50:24.940Z,34.27
2018-05-03T12:52:52.470Z,35.83
2018-05-03T12:55:19.998Z,37.41
2018-05-03T12:57:49.077Z,38.29
2018-05-03T13:00:16.620Z,38.99
2018-05-03T13:02:44.143Z,39.58
2018-05-03T13:05:11.768Z,38.58
2018-05-03T13:07:39.331Z,39.05
2018-05-03T13:10:06.982Z,38.14
2018-05-03T13:12:34.601Z,37.16
2018-05-03T13:15:02.169Z,37.93
2018-05-03T13:17:30.435Z,39.11
2018-05-03T13:19:58.031Z,39.64
2018-05-03T13:22:25.596Z,40.50
2018-05-03T13:24:53.314Z,41.22
2018-05-03T13:27:20.974Z,40.90
2018-05-03T13:29:48.791Z,41.59
2018-05-03T13:32:16.406Z,41.32
2018-05-03T13:34:43.996Z,41.09
2018-05-03T13:37:11.539Z,40.86
2018-05-03T13:39:39.079Z,40.89
2018-05-03T13:42:06.669Z,40.41
2018-05-03T13:44:34.182Z,38.22
2018-05-03T13:47:01.774Z,38.26
2018-05-03T13:49:29.277Z,37.95
2018-05-03T13:51:56.827Z,37.30
2018-05-03T13:54:24.359Z,36.79
2018-05-03T13:56:52.157Z,36.54
2018-05-03T13:59:19.697Z,36.64
2018-05-03T14:01:47.406Z,36.46
2018-05-03T14:04:14.939Z,35.31
2018-05-03T14:06:42.443Z,35.02
2018-05-03T14:09:10.258Z,34.53
2018-05-03T14:11:37.835Z,35.13
2018-05-03T14:14:05.695Z,35.15
2018-05-03T14:16:33.211Z,34.86
2018-05-03T14:19:00.937Z,34.85
2018-05-03T14:21:28.537Z,35.11
2018-05-03T14:23:56.343Z,35.19
2018-05-03T14:26:23.894Z,36.26
2018-05-03T14:28:51.672Z,35.93
2018-05-03T14:31:19.196Z,35.06
2018-05-03T14:33:46.738Z,33.48
2018-05-03T14:36:14.255Z,32.38
2018-05-03T14:38:41.772Z,31.74
2018-05-03T14:41:09.342Z,31.20
2018-05-03T14:43:36.891Z,30.88
2018-05-03T14:46:04.652Z,30.43
2018-05-03T14:48:32.234Z,28.75
2018-05-03T14:50:59.804Z,27.36
2018-05-03T14:53:27.401Z,26.91
2018-05-03T14:55:55.350Z,26.37
2018-05-03T14:58:22.865Z,26.06
2018-05-03T15:00:50.371Z,25.90
2018-05-03T15:03:17.932Z,25.68
2018-05-03T15:05:45.545Z,25.47
2018-05-03T15:08:13.289Z,25.23
2018-05-03T15:10:40.894Z,25.00
2018-05-03T15:13:08.700Z,24.78
2018-05-03T15:15:36.231Z,24.07
2018-05-03T15:18:03.757Z,23.44
2018-05-03T15:20:31.261Z,22.87
2018-05-03T15:22:58.829Z,22.52
2018-05-03T15:25:26.422Z,22.40
2018-05-03T15:27:54.063Z,22.31
2018-05-03T15:30:21.728Z,22.34
2018-05-03T15:32:49.603Z,22.22
2018-05-03T15:35:17.343Z,22.35
2018-05-03T15:37:44.854Z,22.26
2018-05-03T15:40:12.697Z,22.02
2018-05-03T15:42:40.206Z,21.85
2018-05-03T15:45:07.758Z,21.58
2018-05-03T15:47:35.328Z,21.38
2018-05-03T15:50:02.955Z,21.39
2018-05-03T15:52:30.404Z,21.18
2018-05-03T15:54:57.950Z,20.97
2018-05-03T15:57:26.026Z,21.08
2018-05-03T15:59:53.611Z,20.84
2018-05-03T16:02:21.233Z,20.82
2018-05-03T16:04:48.778Z,20.76
2018-05-03T16:07:16.299Z,20.76
2018-05-03T16:09:43.863Z,20.61
2018-05-03T16:12:11.486Z,20.55
2018-05-03T16:14:39.547Z,20.38
2018-05-03T16:17:07.151Z,20.21
2018-05-03T16:19:34.983Z,20.11
2018-05-03T16:22:02.500Z,20.07
2018-05-03T16:24:30.402Z,19.93
2018-05-03T16:26:57.939Z,19.90
2018-05-03T16:29:25.438Z,20.00
2018-05-03T16:31:52.967Z,19.96
2018-05-03T16:34:20.495Z,19.97
2018-05-03T16:36:47.996Z,20.04
2018-05-03T16:39:15.561Z,20.02
2018-05-03T16:41:43.066Z,20.07
2018-05-03T16:44:11.262Z,20.00
2018-05-03T16:46:38.794Z,19.98
2018-05-03T16:49:06.373Z,19.92
2018-05-03T16:51:33.913Z,19.88
2018-05-03T16:54:01.482Z,19.79
2018-05-03T16:56:29.100Z,19.73
2018-05-03T16:58:56.629Z,19.58
2018-05-03T17:01:24.203Z,19.63
2018-05-03T17:03:51.725Z,19.60
2018-05-03T17:06:19.241Z,19.56
2018-05-03T17:08:46.775Z,19.47
2018-05-03T17:11:14.781Z,19.43
2018-05-03T17:13:42.316Z,19.37
2018-05-03T17:16:09.966Z,19.24
2018-05-03T17:18:37.492Z,19.19
2018-05-03T17:21:05.049Z,19.20
2018-05-03T17:23:32.583Z,19.11
2018-05-03T17:26:00.113Z,18.85
2018-05-03T17:28:27.631Z,18.80
2018-05-03T17:30:55.198Z,18.80
2018-05-03T17:33:22.727Z,18.69
2018-05-03T17:35:50.225Z,18.73
2018-05-03T17:38:17.801Z,18.56
2018-05-03T17:40:45.330Z,18.51
2018-05-03T17:43:12.885Z,18.46
2018-05-03T17:45:40.443Z,18.45
2018-05-03T17:48:07.963Z,18.49
2018-05-03T17:50:35.499Z,18.39
2018-05-03T17:53:03.089Z,18.35
2018-05-03T17:55:30.611Z,18.27
2018-05-03T17:57:58.114Z,18.12
2018-05-03T18:00:25.666Z,17.89
2018-05-03T18:02:53.166Z,17.78
2018-05-03T18:05:20.676Z,17.62
2018-05-03T18:07:48.249Z,17.57
2018-05-03T18:10:15.767Z,17.52
2018-05-03T18:12:43.319Z,17.57
2018-05-03T18:15:11.164Z,17.53
2018-05-03T18:17:38.719Z,17.38
2018-05-03T18:20:06.241Z,17.30
2018-05-03T18:22:33.794Z,17.22
2018-05-03T18:25:01.326Z,17.25
2018-05-03T18:27:28.861Z,17.25
2018-05-03T18:29:56.457Z,17.24
2018-05-03T18:32:24.281Z,17.10
2018-05-03T18:34:52.404Z,17.01
2018-05-03T18:37:19.947Z,17.02
2018-05-03T18:39:47.545Z,16.98
2018-05-03T18:42:15.157Z,16.94
2018-05-03T18:44:42.705Z,16.96
2018-05-03T18:47:10.206Z,17.05
2018-05-03T18:49:37.831Z,16.79
2018-05-03T18:52:05.471Z,16.73
2018-05-03T18:54:33.348Z,16.68
2018-05-03T18:57:00.967Z,16.58
2018-05-03T18:59:28.833Z,16.25
2018-05-03T19:01:56.687Z,16.36
2018-05-03T19:04:24.361Z,16.30
2018-05-03T19:06:52.010Z,16.08
2018-05-03T19:09:19.623Z,16.05
2018-05-03T19:11:47.214Z,16.01
2018-05-03T19:14:14.771Z,15.94
2018-05-03T19:16:42.385Z,16.07
2018-05-03T19:19:09.918Z,16.13
2018-05-03T19:21:37.450Z,15.94
2018-05-03T19:24:05.013Z,15.95
2018-05-03T19:26:32.571Z,16.06
2018-05-03T19:29:00.117Z,16.11
2018-05-03T19:31:27.923Z,16.04
2018-05-03T19:33:55.437Z,15.93
2018-05-03T19:36:23.322Z,15.92
2018-05-03T19:38:50.846Z,15.92
2018-05-03T19:41:18.407Z,15.88
2018-05-03T19:43:45.940Z,15.83
2018-05-03T19:46:13.543Z,15.55
2018-05-03T19:48:41.067Z,15.64
2018-05-03T19:51:08.614Z,15.76
2018-05-03T19:53:36.171Z,15.57
2018-05-03T19:56:03.768Z,15.56
2018-05-03T19:58:31.400Z,15.61
2018-05-03T20:00:59.156Z,15.59
2018-05-03T20:03:26.698Z,15.67
2018-05-03T20:05:54.270Z,15.65
2018-05-03T20:08:21.879Z,15.65
2018-05-03T20:10:49.389Z,15.54
2018-05-03T20:13:17.142Z,15.45
2018-05-03T20:15:44.704Z,15.37
2018-05-03T20:18:12.241Z,15.31
2018-05-03T20:20:39.774Z,15.35
2018-05-03T20:23:07.290Z,15.42
2018-05-03T20:25:34.797Z,15.33
2018-05-03T20:28:02.330Z,15.27
2018-05-03T20:30:29.871Z,15.27
2018-05-03T20:32:57.727Z,15.38
2018-05-03T20:35:25.301Z,15.35
2018-05-03T20:37:52.842Z,15.34
2018-05-03T20:40:20.386Z,15.26
2018-05-03T20:42:48.397Z,14.97
2018-05-03T20:45:16.019Z,15.07
2018-05-03T20:47:43.594Z,15.05
2018-05-03T20:50:11.169Z,15.06
2018-05-03T20:52:38.727Z,15.13
2018-05-03T20:55:06.250Z,15.09
2018-05-03T20:57:33.856Z,15.11
2018-05-03T21:00:01.312Z,14.91
2018-05-03T21:02:28.846Z,14.94
2018-05-03T21:04:56.416Z,14.93
2018-05-03T21:07:23.933Z,14.97
2018-05-03T21:09:51.436Z,14.94
2018-05-03T21:12:18.961Z,14.98
2018-05-03T21:14:46.516Z,15.00
2018-05-03T21:17:14.078Z,14.97
2018-05-03T21:19:42.087Z,14.91
2018-05-03T21:22:09.603Z,14.91
2018-05-03T21:24:37.413Z,14.92
2018-05-03T21:27:04.979Z,14.89
2018-05-03T21:29:32.852Z,14.80
2018-05-03T21:32:00.418Z,14.82
2018-05-03T21:34:27.967Z,14.77
2018-05-03T21:36:55.509Z,14.75
2018-05-03T21:39:23.043Z,14.78
2018-05-03T21:41:50.599Z,14.65
2018-05-03T21:44:18.156Z,14.62
2018-05-03T21:46:45.721Z,14.72
2018-05-03T21:49:13.299Z,14.64
2018-05-03T21:51:40.820Z,14.63
2018-05-03T21:54:08.364Z,14.60
2018-05-03T21:56:35.903Z,14.59
2018-05-03T21:59:03.414Z,14.56
2018-05-03T22:01:30.964Z,14.56
2018-05-03T22:03:58.623Z,14.59
2018-05-03T22:06:26.128Z,14.62
2018-05-03T22:08:53.736Z,14.63
2018-05-03T22:11:21.293Z,14.55
2018-05-03T22:13:48.827Z,14.58
2018-05-03T22:16:16.335Z,14.50
2018-05-03T22:18:43.906Z,14.45
2018-05-03T22:21:11.415Z,14.47
2018-05-03T22:23:38.924Z,14.45
2018-05-03T22:26:06.551Z,14.58
2018-05-03T22:28:34.119Z,14.47
2018-05-03T22:31:01.638Z,14.43
2018-05-03T22:33:29.167Z,14.50
2018-05-03T22:35:56.737Z,14.45
2018-05-03T22:38:24.328Z,14.37
2018-05-03T22:40:51.820Z,14.31
2018-05-03T22:43:19.433Z,14.30
2018-05-03T22:45:47.023Z,14.32
2018-05-03T22:48:14.581Z,14.31
2018-05-03T22:50:42.130Z,14.26
2018-05-03T22:53:09.677Z,14.33
2018-05-03T22:55:37.280Z,14.31
2018-05-03T22:58:04.889Z,14.27
2018-05-03T23:00:32.396Z,14.19
2018-05-03T23:03:00.269Z,14.21
2018-05-03T23:05:27.841Z,14.28
2018-05-03T23:07:55.435Z,14.25
2018-05-03T23:10:23.010Z,14.23
2018-05-03T23:12:50.543Z,14.24
2018-05-03T23:15:18.103Z,14.18
2018-05-03T23:17:45.697Z,14.18
2018-05-03T23:20:13.308Z,14.13
2018-05-03T23:22:41.312Z,14.08
2018-05-03T23:25:08.943Z,14.03
2018-05-03T23:27:36.495Z,13.99
2018-05-03T23:30:04.040Z,13.96
2018-05-03T23:32:31.674Z,13.92
2018-05-03T23:34:59.253Z,13.91
2018-05-03T23:37:26.708Z,13.91
2018-05-03T23:39:54.272Z,13.91
2018-05-03T23:42:21.822Z,14.00
2018-05-03T23:44:49.370Z,13.97
2018-05-03T23:47:16.915Z,13.92
2018-05-03T23:49:44.729Z,13.85
2018-05-03T23:52:12.503Z,13.84
2018-05-03T23:54:40.366Z,13.78
2018-05-03T23:57:07.896Z,13.78
2018-05-03T23:59:35.401Z,13.76
